sensor_id;sensor_type;location;lat;lon;timestamp;P1;durP1;ratioP1;P2;durP2;ratioP2
30998;SDS011;20549;50.042;8.968;2023-12-28T00:01:06;4.93;;;4.53;;
30998;SDS011;20549;50.042;8.968;2023-12-28T00:03:32;4.30;;;3.90;;
30998;SDS011;20549;50.042;8.968;2023-12-28T00:05:59;5.43;;;4.77;;
30998;SDS011;20549;50.042;8.968;2023-12-28T00:08:25;4.90;;;4.40;;
30998;SDS011;20549;50.042;8.968;2023-12-28T00:10:52;5.83;;;5.23;;
30998;SDS011;20549;50.042;8.968;2023-12-28T00:13:18;5.27;;;4.77;;
30998;SDS011;20549;50.042;8.968;2023-12-28T00:15:45;6.90;;;5.77;;
30998;SDS011;20549;50.042;8.968;2023-12-28T00:18:12;16.50;;;12.77;;
30998;SDS011;20549;50.042;8.968;2023-12-28T00:20:38;12.23;;;9.03;;
30998;SDS011;20549;50.042;8.968;2023-12-28T00:23:05;6.10;;;5.50;;
30998;SDS011;20549;50.042;8.968;2023-12-28T00:25:31;6.80;;;4.70;;
30998;SDS011;20549;50.042;8.968;2023-12-28T00:27:58;5.13;;;4.53;;
30998;SDS011;20549;50.042;8.968;2023-12-28T00:30:25;5.70;;;4.60;;
30998;SDS011;20549;50.042;8.968;2023-12-28T00:32:51;5.00;;;4.20;;
30998;SDS011;20549;50.042;8.968;2023-12-28T00:35:18;4.30;;;3.87;;
30998;SDS011;20549;50.042;8.968;2023-12-28T00:37:44;4.67;;;3.77;;
30998;SDS011;20549;50.042;8.968;2023-12-28T00:40:11;4.03;;;3.33;;
30998;SDS011;20549;50.042;8.968;2023-12-28T00:42:38;3.70;;;3.20;;
30998;SDS011;20549;50.042;8.968;2023-12-28T00:45:04;4.40;;;3.60;;
30998;SDS011;20549;50.042;8.968;2023-12-28T00:47:31;3.10;;;2.80;;
30998;SDS011;20549;50.042;8.968;2023-12-28T00:49:57;3.80;;;3.23;;
30998;SDS011;20549;50.042;8.968;2023-12-28T00:52:24;3.37;;;2.97;;
30998;SDS011;20549;50.042;8.968;2023-12-28T00:54:51;3.73;;;3.33;;
30998;SDS011;20549;50.042;8.968;2023-12-28T00:57:17;6.73;;;3.50;;
30998;SDS011;20549;50.042;8.968;2023-12-28T00:59:44;3.33;;;3.03;;
30998;SDS011;20549;50.042;8.968;2023-12-28T01:02:10;3.53;;;3.23;;
30998;SDS011;20549;50.042;8.968;2023-12-28T01:04:37;3.80;;;3.40;;
30998;SDS011;20549;50.042;8.968;2023-12-28T01:07:03;4.97;;;3.63;;
30998;SDS011;20549;50.042;8.968;2023-12-28T01:09:30;4.60;;;3.47;;
30998;SDS011;20549;50.042;8.968;2023-12-28T01:11:57;3.87;;;3.47;;
30998;SDS011;20549;50.042;8.968;2023-12-28T01:14:23;5.30;;;3.43;;
30998;SDS011;20549;50.042;8.968;2023-12-28T01:16:50;5.00;;;3.70;;
30998;SDS011;20549;50.042;8.968;2023-12-28T01:19:16;3.67;;;3.00;;
30998;SDS011;20549;50.042;8.968;2023-12-28T01:21:43;4.10;;;3.43;;
30998;SDS011;20549;50.042;8.968;2023-12-28T01:24:10;4.63;;;3.60;;
30998;SDS011;20549;50.042;8.968;2023-12-28T01:26:36;4.10;;;3.60;;
30998;SDS011;20549;50.042;8.968;2023-12-28T01:29:03;3.77;;;2.70;;
30998;SDS011;20549;50.042;8.968;2023-12-28T01:31:29;3.63;;;3.30;;
30998;SDS011;20549;50.042;8.968;2023-12-28T01:33:56;3.07;;;2.60;;
30998;SDS011;20549;50.042;8.968;2023-12-28T01:36:22;5.07;;;2.90;;
30998;SDS011;20549;50.042;8.968;2023-12-28T01:38:49;3.27;;;2.47;;
30998;SDS011;20549;50.042;8.968;2023-12-28T01:41:16;3.73;;;2.57;;
30998;SDS011;20549;50.042;8.968;2023-12-28T01:43:42;2.83;;;2.50;;
30998;SDS011;20549;50.042;8.968;2023-12-28T01:46:10;2.23;;;1.90;;
30998;SDS011;20549;50.042;8.968;2023-12-28T01:48:35;2.53;;;2.20;;
30998;SDS011;20549;50.042;8.968;2023-12-28T01:51:02;4.00;;;2.40;;
30998;SDS011;20549;50.042;8.968;2023-12-28T01:53:29;2.73;;;2.43;;
30998;SDS011;20549;50.042;8.968;2023-12-28T01:55:55;2.53;;;2.33;;
30998;SDS011;20549;50.042;8.968;2023-12-28T01:58:22;2.23;;;2.13;;
30998;SDS011;20549;50.042;8.968;2023-12-28T02:00:49;2.67;;;2.47;;
30998;SDS011;20549;50.042;8.968;2023-12-28T02:03:15;2.73;;;2.17;;
30998;SDS011;20549;50.042;8.968;2023-12-28T02:05:41;2.80;;;2.47;;
30998;SDS011;20549;50.042;8.968;2023-12-28T02:08:08;3.83;;;2.45;;
30998;SDS011;20549;50.042;8.968;2023-12-28T02:10:35;3.10;;;2.50;;
30998;SDS011;20549;50.042;8.968;2023-12-28T02:13:01;2.40;;;2.10;;
30998;SDS011;20549;50.042;8.968;2023-12-28T02:15:28;2.57;;;2.37;;
30998;SDS011;20549;50.042;8.968;2023-12-28T02:18:01;2.00;;;1.80;;
30998;SDS011;20549;50.042;8.968;2023-12-28T02:20:27;2.50;;;2.30;;
30998;SDS011;20549;50.042;8.968;2023-12-28T02:22:54;2.40;;;2.20;;
30998;SDS011;20549;50.042;8.968;2023-12-28T02:25:20;3.30;;;2.40;;
30998;SDS011;20549;50.042;8.968;2023-12-28T02:27:47;3.15;;;2.12;;
30998;SDS011;20549;50.042;8.968;2023-12-28T02:30:14;2.50;;;2.30;;
30998;SDS011;20549;50.042;8.968;2023-12-28T02:35:47;2.77;;;2.23;;
30998;SDS011;20549;50.042;8.968;2023-12-28T02:38:18;3.15;;;2.25;;
30998;SDS011;20549;50.042;8.968;2023-12-28T02:40:45;2.35;;;2.15;;
30998;SDS011;20549;50.042;8.968;2023-12-28T02:43:12;2.67;;;2.43;;
30998;SDS011;20549;50.042;8.968;2023-12-28T02:45:38;4.30;;;2.30;;
30998;SDS011;20549;50.042;8.968;2023-12-28T02:48:05;2.47;;;2.27;;
30998;SDS011;20549;50.042;8.968;2023-12-28T02:50:32;2.37;;;2.17;;
30998;SDS011;20549;50.042;8.968;2023-12-28T02:52:58;2.65;;;2.40;;
30998;SDS011;20549;50.042;8.968;2023-12-28T02:55:24;3.42;;;2.40;;
30998;SDS011;20549;50.042;8.968;2023-12-28T02:57:53;3.87;;;2.33;;
30998;SDS011;20549;50.042;8.968;2023-12-28T03:00:18;3.30;;;2.58;;
30998;SDS011;20549;50.042;8.968;2023-12-28T03:02:44;4.25;;;2.37;;
30998;SDS011;20549;50.042;8.968;2023-12-28T03:05:11;2.50;;;2.30;;
30998;SDS011;20549;50.042;8.968;2023-12-28T03:07:37;2.47;;;2.27;;
30998;SDS011;20549;50.042;8.968;2023-12-28T03:10:04;2.50;;;2.30;;
30998;SDS011;20549;50.042;8.968;2023-12-28T03:12:31;2.98;;;2.20;;
30998;SDS011;20549;50.042;8.968;2023-12-28T03:14:57;2.30;;;2.10;;
30998;SDS011;20549;50.042;8.968;2023-12-28T03:17:24;2.50;;;2.30;;
30998;SDS011;20549;50.042;8.968;2023-12-28T03:19:50;2.50;;;2.30;;
30998;SDS011;20549;50.042;8.968;2023-12-28T03:22:17;2.25;;;2.15;;
30998;SDS011;20549;50.042;8.968;2023-12-28T03:24:44;2.70;;;2.50;;
30998;SDS011;20549;50.042;8.968;2023-12-28T03:27:10;2.42;;;2.05;;
30998;SDS011;20549;50.042;8.968;2023-12-28T03:29:37;2.33;;;2.12;;
30998;SDS011;20549;50.042;8.968;2023-12-28T03:32:03;3.30;;;2.40;;
30998;SDS011;20549;50.042;8.968;2023-12-28T03:34:30;2.95;;;2.37;;
30998;SDS011;20549;50.042;8.968;2023-12-28T03:36:57;2.50;;;2.30;;
30998;SDS011;20549;50.042;8.968;2023-12-28T03:39:23;2.45;;;2.25;;
30998;SDS011;20549;50.042;8.968;2023-12-28T03:41:50;7.58;;;3.47;;
30998;SDS011;20549;50.042;8.968;2023-12-28T03:44:16;2.73;;;2.30;;
30998;SDS011;20549;50.042;8.968;2023-12-28T03:46:43;3.40;;;2.52;;
30998;SDS011;20549;50.042;8.968;2023-12-28T03:49:10;2.50;;;2.30;;
30998;SDS011;20549;50.042;8.968;2023-12-28T03:51:36;2.20;;;2.10;;
30998;SDS011;20549;50.042;8.968;2023-12-28T03:54:03;2.58;;;2.00;;
30998;SDS011;20549;50.042;8.968;2023-12-28T03:56:29;2.37;;;2.10;;
30998;SDS011;20549;50.042;8.968;2023-12-28T03:58:56;3.00;;;2.00;;
30998;SDS011;20549;50.042;8.968;2023-12-28T04:01:23;2.10;;;1.90;;
30998;SDS011;20549;50.042;8.968;2023-12-28T04:03:49;2.65;;;2.20;;
30998;SDS011;20549;50.042;8.968;2023-12-28T04:06:16;2.20;;;2.00;;
30998;SDS011;20549;50.042;8.968;2023-12-28T04:08:42;2.87;;;2.02;;
30998;SDS011;20549;50.042;8.968;2023-12-28T04:11:09;4.40;;;2.20;;
30998;SDS011;20549;50.042;8.968;2023-12-28T04:13:35;2.80;;;2.15;;
30998;SDS011;20549;50.042;8.968;2023-12-28T04:16:02;3.40;;;2.33;;
30998;SDS011;20549;50.042;8.968;2023-12-28T04:18:29;3.60;;;2.30;;
30998;SDS011;20549;50.042;8.968;2023-12-28T04:20:55;5.83;;;2.13;;
30998;SDS011;20549;50.042;8.968;2023-12-28T04:23:22;2.83;;;2.00;;
30998;SDS011;20549;50.042;8.968;2023-12-28T04:25:48;4.60;;;2.20;;
30998;SDS011;20549;50.042;8.968;2023-12-28T04:28:15;2.35;;;1.90;;
30998;SDS011;20549;50.042;8.968;2023-12-28T04:30:42;2.43;;;2.23;;
30998;SDS011;20549;50.042;8.968;2023-12-28T04:33:08;2.60;;;2.25;;
30998;SDS011;20549;50.042;8.968;2023-12-28T04:35:35;2.30;;;2.10;;
30998;SDS011;20549;50.042;8.968;2023-12-28T04:38:01;2.30;;;2.03;;
30998;SDS011;20549;50.042;8.968;2023-12-28T04:40:28;5.30;;;2.43;;
30998;SDS011;20549;50.042;8.968;2023-12-28T04:42:54;2.10;;;1.90;;
30998;SDS011;20549;50.042;8.968;2023-12-28T04:45:21;2.10;;;2.00;;
30998;SDS011;20549;50.042;8.968;2023-12-28T04:47:48;2.58;;;2.37;;
30998;SDS011;20549;50.042;8.968;2023-12-28T04:50:14;3.85;;;2.50;;
30998;SDS011;20549;50.042;8.968;2023-12-28T04:52:41;2.33;;;2.00;;
30998;SDS011;20549;50.042;8.968;2023-12-28T04:55:07;3.62;;;2.05;;
30998;SDS011;20549;50.042;8.968;2023-12-28T04:57:34;1.80;;;1.70;;
30998;SDS011;20549;50.042;8.968;2023-12-28T05:00:01;2.30;;;2.10;;
30998;SDS011;20549;50.042;8.968;2023-12-28T05:02:27;3.08;;;2.17;;
30998;SDS011;20549;50.042;8.968;2023-12-28T05:04:54;3.67;;;2.00;;
30998;SDS011;20549;50.042;8.968;2023-12-28T05:07:20;2.30;;;2.02;;
30998;SDS011;20549;50.042;8.968;2023-12-28T05:09:47;2.60;;;2.30;;
30998;SDS011;20549;50.042;8.968;2023-12-28T05:12:14;2.40;;;1.90;;
30998;SDS011;20549;50.042;8.968;2023-12-28T05:14:40;2.22;;;2.02;;
30998;SDS011;20549;50.042;8.968;2023-12-28T05:17:07;1.80;;;1.70;;
30998;SDS011;20549;50.042;8.968;2023-12-28T05:19:33;2.40;;;2.20;;
30998;SDS011;20549;50.042;8.968;2023-12-28T05:22:00;2.98;;;2.05;;
30998;SDS011;20549;50.042;8.968;2023-12-28T05:24:29;1.90;;;1.80;;
30998;SDS011;20549;50.042;8.968;2023-12-28T05:26:56;2.27;;;2.05;;
30998;SDS011;20549;50.042;8.968;2023-12-28T05:29:22;2.07;;;1.87;;
30998;SDS011;20549;50.042;8.968;2023-12-28T05:31:49;2.15;;;1.98;;
30998;SDS011;20549;50.042;8.968;2023-12-28T05:34:15;1.85;;;1.70;;
30998;SDS011;20549;50.042;8.968;2023-12-28T05:36:42;2.10;;;1.90;;
30998;SDS011;20549;50.042;8.968;2023-12-28T05:39:09;3.30;;;2.10;;
30998;SDS011;20549;50.042;8.968;2023-12-28T05:41:35;2.30;;;2.10;;
30998;SDS011;20549;50.042;8.968;2023-12-28T05:44:02;2.52;;;1.95;;
30998;SDS011;20549;50.042;8.968;2023-12-28T05:46:28;2.30;;;2.10;;
30998;SDS011;20549;50.042;8.968;2023-12-28T05:48:55;2.25;;;2.00;;
30998;SDS011;20549;50.042;8.968;2023-12-28T05:51:21;2.87;;;2.03;;
30998;SDS011;20549;50.042;8.968;2023-12-28T05:53:48;3.00;;;2.23;;
30998;SDS011;20549;50.042;8.968;2023-12-28T05:56:15;3.42;;;2.27;;
30998;SDS011;20549;50.042;8.968;2023-12-28T05:58:41;2.37;;;2.17;;
30998;SDS011;20549;50.042;8.968;2023-12-28T06:01:08;2.08;;;1.98;;
30998;SDS011;20549;50.042;8.968;2023-12-28T06:03:34;2.25;;;2.08;;
30998;SDS011;20549;50.042;8.968;2023-12-28T06:06:01;2.27;;;1.95;;
30998;SDS011;20549;50.042;8.968;2023-12-28T06:08:28;1.95;;;1.85;;
30998;SDS011;20549;50.042;8.968;2023-12-28T06:10:54;2.07;;;1.90;;
30998;SDS011;20549;50.042;8.968;2023-12-28T06:13:21;1.95;;;1.77;;
30998;SDS011;20549;50.042;8.968;2023-12-28T06:15:47;3.07;;;2.00;;
30998;SDS011;20549;50.042;8.968;2023-12-28T06:18:14;1.70;;;1.60;;
30998;SDS011;20549;50.042;8.968;2023-12-28T06:20:41;2.00;;;1.80;;
30998;SDS011;20549;50.042;8.968;2023-12-28T06:23:07;2.47;;;1.90;;
30998;SDS011;20549;50.042;8.968;2023-12-28T06:25:34;2.30;;;1.60;;
30998;SDS011;20549;50.042;8.968;2023-12-28T06:28:00;2.08;;;1.95;;
30998;SDS011;20549;50.042;8.968;2023-12-28T06:30:27;3.12;;;1.98;;
30998;SDS011;20549;50.042;8.968;2023-12-28T06:32:53;1.95;;;1.65;;
30998;SDS011;20549;50.042;8.968;2023-12-28T06:35:20;2.77;;;2.07;;
30998;SDS011;20549;50.042;8.968;2023-12-28T06:37:47;1.90;;;1.70;;
30998;SDS011;20549;50.042;8.968;2023-12-28T06:40:13;3.00;;;2.03;;
30998;SDS011;20549;50.042;8.968;2023-12-28T06:42:40;2.07;;;1.87;;
30998;SDS011;20549;50.042;8.968;2023-12-28T06:45:06;2.13;;;1.93;;
30998;SDS011;20549;50.042;8.968;2023-12-28T06:47:33;2.00;;;1.60;;
30998;SDS011;20549;50.042;8.968;2023-12-28T06:50:00;2.02;;;1.77;;
30998;SDS011;20549;50.042;8.968;2023-12-28T06:52:26;1.70;;;1.60;;
30998;SDS011;20549;50.042;8.968;2023-12-28T06:54:53;2.20;;;2.10;;
30998;SDS011;20549;50.042;8.968;2023-12-28T06:57:19;2.10;;;1.90;;
30998;SDS011;20549;50.042;8.968;2023-12-28T06:59:46;2.03;;;1.83;;
30998;SDS011;20549;50.042;8.968;2023-12-28T07:02:13;2.08;;;1.70;;
30998;SDS011;20549;50.042;8.968;2023-12-28T07:04:39;2.60;;;1.60;;
30998;SDS011;20549;50.042;8.968;2023-12-28T07:07:06;1.57;;;1.47;;
30998;SDS011;20549;50.042;8.968;2023-12-28T07:09:32;1.93;;;1.70;;
30998;SDS011;20549;50.042;8.968;2023-12-28T07:11:59;1.95;;;1.80;;
30998;SDS011;20549;50.042;8.968;2023-12-28T07:14:25;1.98;;;1.87;;
30998;SDS011;20549;50.042;8.968;2023-12-28T07:16:52;1.90;;;1.80;;
30998;SDS011;20549;50.042;8.968;2023-12-28T07:19:19;2.08;;;1.65;;
30998;SDS011;20549;50.042;8.968;2023-12-28T07:21:45;1.92;;;1.70;;
30998;SDS011;20549;50.042;8.968;2023-12-28T07:24:12;1.80;;;1.70;;
30998;SDS011;20549;50.042;8.968;2023-12-28T07:26:38;1.62;;;1.52;;
30998;SDS011;20549;50.042;8.968;2023-12-28T07:29:05;1.90;;;1.80;;
30998;SDS011;20549;50.042;8.968;2023-12-28T07:31:32;1.90;;;1.80;;
30998;SDS011;20549;50.042;8.968;2023-12-28T07:33:58;2.22;;;1.95;;
30998;SDS011;20549;50.042;8.968;2023-12-28T07:36:25;2.10;;;1.67;;
30998;SDS011;20549;50.042;8.968;2023-12-28T07:38:51;1.75;;;1.65;;
30998;SDS011;20549;50.042;8.968;2023-12-28T07:41:18;1.70;;;1.60;;
30998;SDS011;20549;50.042;8.968;2023-12-28T07:43:45;1.77;;;1.67;;
30998;SDS011;20549;50.042;8.968;2023-12-28T07:46:11;1.70;;;1.60;;
30998;SDS011;20549;50.042;8.968;2023-12-28T07:48:38;1.70;;;1.60;;
30998;SDS011;20549;50.042;8.968;2023-12-28T07:51:04;1.60;;;1.45;;
30998;SDS011;20549;50.042;8.968;2023-12-28T07:53:31;2.17;;;1.60;;
30998;SDS011;20549;50.042;8.968;2023-12-28T07:55:57;1.95;;;1.70;;
30998;SDS011;20549;50.042;8.968;2023-12-28T07:58:24;1.67;;;1.57;;
30998;SDS011;20549;50.042;8.968;2023-12-28T08:00:51;1.30;;;1.20;;
30998;SDS011;20549;50.042;8.968;2023-12-28T08:03:17;2.67;;;1.90;;
30998;SDS011;20549;50.042;8.968;2023-12-28T08:05:44;1.60;;;1.50;;
30998;SDS011;20549;50.042;8.968;2023-12-28T08:08:10;1.70;;;1.60;;
30998;SDS011;20549;50.042;8.968;2023-12-28T08:10:37;1.52;;;1.42;;
30998;SDS011;20549;50.042;8.968;2023-12-28T08:13:04;1.72;;;1.62;;
30998;SDS011;20549;50.042;8.968;2023-12-28T08:15:30;1.87;;;1.65;;
30998;SDS011;20549;50.042;8.968;2023-12-28T08:17:57;2.00;;;1.80;;
30998;SDS011;20549;50.042;8.968;2023-12-28T08:20:23;1.70;;;1.60;;
30998;SDS011;20549;50.042;8.968;2023-12-28T08:22:50;1.82;;;1.67;;
30998;SDS011;20549;50.042;8.968;2023-12-28T08:25:17;1.72;;;1.60;;
30998;SDS011;20549;50.042;8.968;2023-12-28T08:27:43;2.37;;;1.70;;
30998;SDS011;20549;50.042;8.968;2023-12-28T08:30:10;4.03;;;1.77;;
30998;SDS011;20549;50.042;8.968;2023-12-28T08:32:36;1.40;;;1.30;;
30998;SDS011;20549;50.042;8.968;2023-12-28T08:35:03;1.67;;;1.57;;
30998;SDS011;20549;50.042;8.968;2023-12-28T08:37:29;1.60;;;1.50;;
30998;SDS011;20549;50.042;8.968;2023-12-28T08:39:56;2.83;;;1.65;;
30998;SDS011;20549;50.042;8.968;2023-12-28T08:42:23;3.10;;;1.70;;
30998;SDS011;20549;50.042;8.968;2023-12-28T08:44:49;1.75;;;1.65;;
30998;SDS011;20549;50.042;8.968;2023-12-28T08:47:16;2.42;;;1.55;;
30998;SDS011;20549;50.042;8.968;2023-12-28T08:49:42;2.80;;;1.50;;
30998;SDS011;20549;50.042;8.968;2023-12-28T08:52:09;1.70;;;1.60;;
30998;SDS011;20549;50.042;8.968;2023-12-28T08:54:36;1.50;;;1.40;;
30998;SDS011;20549;50.042;8.968;2023-12-28T08:57:02;11.35;;;10.15;;
30998;SDS011;20549;50.042;8.968;2023-12-28T08:59:29;4.42;;;3.60;;
30998;SDS011;20549;50.042;8.968;2023-12-28T09:01:55;2.27;;;2.00;;
30998;SDS011;20549;50.042;8.968;2023-12-28T09:04:22;1.80;;;1.70;;
30998;SDS011;20549;50.042;8.968;2023-12-28T09:06:49;2.13;;;1.93;;
30998;SDS011;20549;50.042;8.968;2023-12-28T09:09:15;2.00;;;1.73;;
30998;SDS011;20549;50.042;8.968;2023-12-28T09:11:42;2.22;;;1.80;;
30998;SDS011;20549;50.042;8.968;2023-12-28T09:14:08;2.30;;;2.10;;
30998;SDS011;20549;50.042;8.968;2023-12-28T09:16:35;1.95;;;1.70;;
30998;SDS011;20549;50.042;8.968;2023-12-28T09:19:02;1.90;;;1.80;;
30998;SDS011;20549;50.042;8.968;2023-12-28T09:21:28;1.95;;;1.70;;
30998;SDS011;20549;50.042;8.968;2023-12-28T09:23:55;2.02;;;1.70;;
30998;SDS011;20549;50.042;8.968;2023-12-28T09:26:21;1.52;;;1.42;;
30998;SDS011;20549;50.042;8.968;2023-12-28T09:28:48;2.83;;;1.95;;
30998;SDS011;20549;50.042;8.968;2023-12-28T09:31:14;2.75;;;1.60;;
30998;SDS011;20549;50.042;8.968;2023-12-28T09:33:41;2.62;;;1.67;;
30998;SDS011;20549;50.042;8.968;2023-12-28T09:36:08;2.97;;;2.10;;
30998;SDS011;20549;50.042;8.968;2023-12-28T09:38:34;1.70;;;1.60;;
30998;SDS011;20549;50.042;8.968;2023-12-28T09:41:04;1.70;;;1.60;;
30998;SDS011;20549;50.042;8.968;2023-12-28T09:43:30;1.57;;;1.47;;
30998;SDS011;20549;50.042;8.968;2023-12-28T09:46:06;1.95;;;1.77;;
30998;SDS011;20549;50.042;8.968;2023-12-28T09:48:32;1.80;;;1.52;;
30998;SDS011;20549;50.042;8.968;2023-12-28T09:50:58;1.98;;;1.80;;
30998;SDS011;20549;50.042;8.968;2023-12-28T09:53:25;2.20;;;1.70;;
30998;SDS011;20549;50.042;8.968;2023-12-28T09:55:52;1.70;;;1.60;;
30998;SDS011;20549;50.042;8.968;2023-12-28T09:58:18;1.57;;;1.47;;
30998;SDS011;20549;50.042;8.968;2023-12-28T10:00:45;4.03;;;1.65;;
30998;SDS011;20549;50.042;8.968;2023-12-28T10:03:15;3.05;;;1.40;;
30998;SDS011;20549;50.042;8.968;2023-12-28T10:05:41;3.15;;;1.98;;
30998;SDS011;20549;50.042;8.968;2023-12-28T10:08:08;2.02;;;1.65;;
30998;SDS011;20549;50.042;8.968;2023-12-28T10:10:34;2.33;;;1.62;;
30998;SDS011;20549;50.042;8.968;2023-12-28T10:13:01;1.65;;;1.55;;
30998;SDS011;20549;50.042;8.968;2023-12-28T10:15:27;1.70;;;1.60;;
30998;SDS011;20549;50.042;8.968;2023-12-28T10:17:54;2.70;;;1.60;;
30998;SDS011;20549;50.042;8.968;2023-12-28T10:20:20;1.70;;;1.60;;
30998;SDS011;20549;50.042;8.968;2023-12-28T10:22:47;1.72;;;1.62;;
30998;SDS011;20549;50.042;8.968;2023-12-28T10:25:14;2.05;;;1.75;;
30998;SDS011;20549;50.042;8.968;2023-12-28T10:27:40;1.82;;;1.50;;
30998;SDS011;20549;50.042;8.968;2023-12-28T10:30:07;1.67;;;1.35;;
30998;SDS011;20549;50.042;8.968;2023-12-28T10:32:33;1.52;;;1.42;;
30998;SDS011;20549;50.042;8.968;2023-12-28T10:35:00;2.15;;;1.35;;
30998;SDS011;20549;50.042;8.968;2023-12-28T10:37:27;1.60;;;1.50;;
30998;SDS011;20549;50.042;8.968;2023-12-28T10:39:53;1.57;;;1.47;;
30998;SDS011;20549;50.042;8.968;2023-12-28T10:42:30;1.98;;;1.70;;
30998;SDS011;20549;50.042;8.968;2023-12-28T10:44:55;1.50;;;1.40;;
30998;SDS011;20549;50.042;8.968;2023-12-28T10:47:22;3.00;;;1.77;;
30998;SDS011;20549;50.042;8.968;2023-12-28T10:49:48;1.70;;;1.57;;
30998;SDS011;20549;50.042;8.968;2023-12-28T10:52:16;2.15;;;1.45;;
30998;SDS011;20549;50.042;8.968;2023-12-28T10:54:45;1.32;;;1.22;;
30998;SDS011;20549;50.042;8.968;2023-12-28T10:57:16;1.70;;;1.60;;
30998;SDS011;20549;50.042;8.968;2023-12-28T11:02:33;1.85;;;1.70;;
30998;SDS011;20549;50.042;8.968;2023-12-28T11:04:57;2.58;;;1.80;;
30998;SDS011;20549;50.042;8.968;2023-12-28T11:07:24;2.35;;;1.57;;
30998;SDS011;20549;50.042;8.968;2023-12-28T11:09:51;1.72;;;1.17;;
30998;SDS011;20549;50.042;8.968;2023-12-28T11:12:17;1.72;;;1.60;;
30998;SDS011;20549;50.042;8.968;2023-12-28T11:14:44;2.47;;;1.47;;
30998;SDS011;20549;50.042;8.968;2023-12-28T11:17:10;3.98;;;1.47;;
30998;SDS011;20549;50.042;8.968;2023-12-28T11:19:37;1.62;;;1.50;;
30998;SDS011;20549;50.042;8.968;2023-12-28T11:22:03;2.02;;;1.57;;
30998;SDS011;20549;50.042;8.968;2023-12-28T11:24:30;1.65;;;1.55;;
30998;SDS011;20549;50.042;8.968;2023-12-28T11:26:57;2.05;;;1.40;;
30998;SDS011;20549;50.042;8.968;2023-12-28T11:29:23;1.50;;;1.40;;
30998;SDS011;20549;50.042;8.968;2023-12-28T11:31:53;1.90;;;1.60;;
30998;SDS011;20549;50.042;8.968;2023-12-28T11:34:25;2.15;;;1.57;;
30998;SDS011;20549;50.042;8.968;2023-12-28T11:36:52;1.50;;;1.35;;
30998;SDS011;20549;50.042;8.968;2023-12-28T11:39:20;1.62;;;1.40;;
30998;SDS011;20549;50.042;8.968;2023-12-28T11:41:44;2.65;;;1.50;;
30998;SDS011;20549;50.042;8.968;2023-12-28T11:44:11;2.80;;;1.57;;
30998;SDS011;20549;50.042;8.968;2023-12-28T11:46:38;1.82;;;1.50;;
30998;SDS011;20549;50.042;8.968;2023-12-28T11:49:04;1.72;;;1.57;;
30998;SDS011;20549;50.042;8.968;2023-12-28T11:51:31;1.77;;;1.37;;
30998;SDS011;20549;50.042;8.968;2023-12-28T11:54:00;1.50;;;1.40;;
30998;SDS011;20549;50.042;8.968;2023-12-28T11:56:27;2.10;;;1.77;;
30998;SDS011;20549;50.042;8.968;2023-12-28T11:58:54;2.25;;;1.80;;
30998;SDS011;20549;50.042;8.968;2023-12-28T12:01:20;1.20;;;1.17;;
30998;SDS011;20549;50.042;8.968;2023-12-28T12:03:50;2.95;;;1.57;;
30998;SDS011;20549;50.042;8.968;2023-12-28T12:06:13;1.70;;;1.60;;
30998;SDS011;20549;50.042;8.968;2023-12-28T12:08:40;2.70;;;2.05;;
30998;SDS011;20549;50.042;8.968;2023-12-28T12:11:06;1.60;;;1.50;;
30998;SDS011;20549;50.042;8.968;2023-12-28T12:13:33;1.85;;;1.70;;
30998;SDS011;20549;50.042;8.968;2023-12-28T12:16:00;3.30;;;1.70;;
30998;SDS011;20549;50.042;8.968;2023-12-28T12:18:26;1.70;;;1.60;;
30998;SDS011;20549;50.042;8.968;2023-12-28T12:20:53;1.67;;;1.52;;
30998;SDS011;20549;50.042;8.968;2023-12-28T12:23:19;1.80;;;1.45;;
30998;SDS011;20549;50.042;8.968;2023-12-28T12:25:46;1.50;;;1.40;;
30998;SDS011;20549;50.042;8.968;2023-12-28T12:28:13;2.58;;;1.55;;
30998;SDS011;20549;50.042;8.968;2023-12-28T12:30:39;1.32;;;1.22;;
30998;SDS011;20549;50.042;8.968;2023-12-28T12:33:06;2.50;;;1.70;;
30998;SDS011;20549;50.042;8.968;2023-12-28T12:35:32;3.72;;;1.65;;
30998;SDS011;20549;50.042;8.968;2023-12-28T12:37:59;2.70;;;1.75;;
30998;SDS011;20549;50.042;8.968;2023-12-28T12:40:26;2.00;;;1.90;;
30998;SDS011;20549;50.042;8.968;2023-12-28T12:42:55;1.75;;;1.52;;
30998;SDS011;20549;50.042;8.968;2023-12-28T12:45:19;1.87;;;1.32;;
30998;SDS011;20549;50.042;8.968;2023-12-28T12:47:46;1.50;;;1.40;;
30998;SDS011;20549;50.042;8.968;2023-12-28T12:50:12;4.10;;;2.10;;
30998;SDS011;20549;50.042;8.968;2023-12-28T12:52:39;1.77;;;1.50;;
30998;SDS011;20549;50.042;8.968;2023-12-28T12:55:05;2.87;;;1.62;;
30998;SDS011;20549;50.042;8.968;2023-12-28T12:57:32;1.60;;;1.50;;
30998;SDS011;20549;50.042;8.968;2023-12-28T12:59:58;2.00;;;1.87;;
30998;SDS011;20549;50.042;8.968;2023-12-28T13:02:25;2.33;;;1.82;;
30998;SDS011;20549;50.042;8.968;2023-12-28T13:04:52;3.10;;;2.10;;
30998;SDS011;20549;50.042;8.968;2023-12-28T13:07:21;2.60;;;1.80;;
30998;SDS011;20549;50.042;8.968;2023-12-28T13:09:47;2.47;;;1.72;;
30998;SDS011;20549;50.042;8.968;2023-12-28T13:12:14;1.70;;;1.60;;
30998;SDS011;20549;50.042;8.968;2023-12-28T13:14:40;1.70;;;1.60;;
30998;SDS011;20549;50.042;8.968;2023-12-28T13:17:07;4.03;;;2.00;;
30998;SDS011;20549;50.042;8.968;2023-12-28T13:19:34;2.42;;;1.55;;
30998;SDS011;20549;50.042;8.968;2023-12-28T13:22:00;2.15;;;1.95;;
30998;SDS011;20549;50.042;8.968;2023-12-28T13:24:27;3.27;;;1.60;;
30998;SDS011;20549;50.042;8.968;2023-12-28T13:26:53;2.08;;;1.85;;
30998;SDS011;20549;50.042;8.968;2023-12-28T13:29:20;5.33;;;1.87;;
30998;SDS011;20549;50.042;8.968;2023-12-28T13:31:46;2.02;;;1.70;;
30998;SDS011;20549;50.042;8.968;2023-12-28T13:34:13;2.45;;;1.62;;
30998;SDS011;20549;50.042;8.968;2023-12-28T13:36:40;1.60;;;1.50;;
30998;SDS011;20549;50.042;8.968;2023-12-28T13:39:06;1.80;;;1.65;;
30998;SDS011;20549;50.042;8.968;2023-12-28T13:41:33;2.22;;;2.02;;
30998;SDS011;20549;50.042;8.968;2023-12-28T13:43:59;1.98;;;1.77;;
30998;SDS011;20549;50.042;8.968;2023-12-28T13:46:26;1.95;;;1.72;;
30998;SDS011;20549;50.042;8.968;2023-12-28T13:48:53;2.12;;;1.57;;
30998;SDS011;20549;50.042;8.968;2023-12-28T13:51:19;1.50;;;1.40;;
30998;SDS011;20549;50.042;8.968;2023-12-28T13:53:46;1.82;;;1.62;;
30998;SDS011;20549;50.042;8.968;2023-12-28T13:56:12;1.55;;;1.45;;
30998;SDS011;20549;50.042;8.968;2023-12-28T13:58:39;2.30;;;1.75;;
30998;SDS011;20549;50.042;8.968;2023-12-28T14:01:06;2.15;;;1.98;;
30998;SDS011;20549;50.042;8.968;2023-12-28T14:03:32;3.70;;;1.92;;
30998;SDS011;20549;50.042;8.968;2023-12-28T14:05:59;2.22;;;1.98;;
30998;SDS011;20549;50.042;8.968;2023-12-28T14:08:25;2.17;;;1.98;;
30998;SDS011;20549;50.042;8.968;2023-12-28T14:10:52;1.35;;;1.17;;
30998;SDS011;20549;50.042;8.968;2023-12-28T14:13:18;5.70;;;1.80;;
30998;SDS011;20549;50.042;8.968;2023-12-28T14:15:45;3.15;;;2.00;;
30998;SDS011;20549;50.042;8.968;2023-12-28T14:18:12;2.30;;;1.85;;
30998;SDS011;20549;50.042;8.968;2023-12-28T14:20:38;1.72;;;1.62;;
30998;SDS011;20549;50.042;8.968;2023-12-28T14:23:05;1.82;;;1.72;;
30998;SDS011;20549;50.042;8.968;2023-12-28T14:25:31;1.70;;;1.60;;
30998;SDS011;20549;50.042;8.968;2023-12-28T14:27:58;2.08;;;1.87;;
30998;SDS011;20549;50.042;8.968;2023-12-28T14:30:25;1.60;;;1.50;;
30998;SDS011;20549;50.042;8.968;2023-12-28T14:32:51;1.40;;;1.30;;
30998;SDS011;20549;50.042;8.968;2023-12-28T14:35:18;1.92;;;1.57;;
30998;SDS011;20549;50.042;8.968;2023-12-28T14:37:44;1.35;;;1.25;;
30998;SDS011;20549;50.042;8.968;2023-12-28T14:40:11;2.10;;;1.42;;
30998;SDS011;20549;50.042;8.968;2023-12-28T14:42:38;1.50;;;1.40;;
30998;SDS011;20549;50.042;8.968;2023-12-28T14:45:04;2.10;;;1.17;;
30998;SDS011;20549;50.042;8.968;2023-12-28T14:47:31;1.30;;;1.20;;
30998;SDS011;20549;50.042;8.968;2023-12-28T14:49:57;1.75;;;1.65;;